createdAt,value
2019-03-15T00:01:40.340Z,5.67
2019-03-15T00:04:08.804Z,5.93
2019-03-15T00:06:37.247Z,6.80
2019-03-15T00:09:07.859Z,6.30
2019-03-15T00:11:36.466Z,6.93
2019-03-15T00:14:05.473Z,7.00
2019-03-15T00:16:34.326Z,6.63
2019-03-15T00:19:02.926Z,5.97
2019-03-15T00:21:31.373Z,6.10
2019-03-15T00:23:59.874Z,6.03
2019-03-15T00:26:28.464Z,5.77
2019-03-15T00:28:56.969Z,6.80
2019-03-15T00:31:25.452Z,5.50
2019-03-15T00:33:53.910Z,6.43
2019-03-15T00:36:22.356Z,6.47
2019-03-15T00:38:51.059Z,5.73
2019-03-15T00:41:19.728Z,5.83
2019-03-15T00:43:49.519Z,5.70
2019-03-15T00:46:18.433Z,6.13
2019-03-15T00:48:47.061Z,6.23
2019-03-15T00:51:15.606Z,6.33
2019-03-15T00:53:44.096Z,6.73
2019-03-15T00:56:12.560Z,6.37
2019-03-15T00:58:41.024Z,6.57
2019-03-15T01:01:09.756Z,6.90
2019-03-15T01:03:38.219Z,6.80
2019-03-15T01:06:06.668Z,7.13
2019-03-15T01:08:35.192Z,6.77
2019-03-15T01:11:03.639Z,7.50
2019-03-15T01:13:32.096Z,7.33
2019-03-15T01:16:00.605Z,7.47
2019-03-15T01:18:29.072Z,7.60
2019-03-15T01:20:57.612Z,8.23
2019-03-15T01:23:26.107Z,8.30
2019-03-15T01:25:54.582Z,8.23
2019-03-15T01:28:23.189Z,7.97
2019-03-15T01:30:51.704Z,8.10
2019-03-15T01:33:20.180Z,9.10
2019-03-15T01:35:48.708Z,8.70
2019-03-15T01:38:17.214Z,9.20
2019-03-15T01:40:48.640Z,9.80
2019-03-15T01:43:15.843Z,9.70
2019-03-15T01:45:44.338Z,9.77
2019-03-15T01:48:12.787Z,9.37
2019-03-15T01:50:41.310Z,9.67
2019-03-15T01:53:09.807Z,10.27
2019-03-15T01:55:38.275Z,10.27
2019-03-15T01:58:06.877Z,10.60
2019-03-15T02:00:35.559Z,11.03
2019-03-15T02:03:04.092Z,11.33
2019-03-15T02:05:32.555Z,11.27
2019-03-15T02:08:01.055Z,11.67
2019-03-15T02:10:29.510Z,12.87
2019-03-15T02:12:57.977Z,12.43
2019-03-15T02:15:26.535Z,12.63
2019-03-15T02:17:55.001Z,13.50
2019-03-15T02:20:23.529Z,12.97
2019-03-15T02:22:52.035Z,12.60
2019-03-15T02:25:20.501Z,12.00
2019-03-15T02:27:49.038Z,11.77
2019-03-15T02:30:17.551Z,12.23
2019-03-15T02:32:46.080Z,12.80
2019-03-15T02:35:14.609Z,12.27
2019-03-15T02:37:43.243Z,12.33
2019-03-15T02:40:12.857Z,11.80
2019-03-15T02:42:41.692Z,12.50
2019-03-15T02:45:10.406Z,11.93
2019-03-15T02:47:38.865Z,12.40
2019-03-15T02:50:08.351Z,12.53
2019-03-15T02:52:36.970Z,12.53
2019-03-15T02:55:06.896Z,11.97
2019-03-15T02:57:35.707Z,11.80
2019-03-15T03:00:06.622Z,12.13
2019-03-15T03:02:35.096Z,12.57
2019-03-15T03:05:05.351Z,11.70
2019-03-15T03:07:34.005Z,12.50
2019-03-15T03:10:02.619Z,11.80
2019-03-15T03:12:31.180Z,12.60
2019-03-15T03:14:59.734Z,12.63
2019-03-15T03:17:47.532Z,13.33
2019-03-15T03:20:16.059Z,14.97
2019-03-15T03:22:44.581Z,13.80
2019-03-15T03:25:13.035Z,13.67
2019-03-15T03:27:41.608Z,15.13
2019-03-15T03:30:10.854Z,14.73
2019-03-15T03:32:40.152Z,15.20
2019-03-15T03:35:10.564Z,16.60
2019-03-15T03:37:39.426Z,17.03
2019-03-15T03:40:08.428Z,14.40
2019-03-15T03:42:37.122Z,17.40
2019-03-15T03:45:07.194Z,14.43
2019-03-15T03:47:35.643Z,12.80
2019-03-15T03:50:06.404Z,12.87
2019-03-15T03:52:34.868Z,12.90
2019-03-15T03:55:03.897Z,12.30
2019-03-15T03:57:32.497Z,12.07
2019-03-15T04:00:01.067Z,10.33
2019-03-15T04:02:32.799Z,10.43
2019-03-15T04:05:00.347Z,10.77
2019-03-15T04:07:28.885Z,11.03
2019-03-15T04:09:57.391Z,9.20
2019-03-15T04:12:25.892Z,9.63
2019-03-15T04:14:54.343Z,9.83
2019-03-15T04:17:22.779Z,9.73
2019-03-15T04:19:51.273Z,9.70
2019-03-15T04:22:19.795Z,9.60
2019-03-15T04:24:48.255Z,9.93
2019-03-15T04:27:16.748Z,10.60
2019-03-15T04:29:45.204Z,10.10
2019-03-15T04:32:13.647Z,9.53
2019-03-15T04:34:42.157Z,9.03
2019-03-15T04:37:10.625Z,8.37
2019-03-15T04:39:39.218Z,8.20
2019-03-15T04:42:07.839Z,7.73
2019-03-15T04:44:36.298Z,7.60
2019-03-15T04:47:04.746Z,7.67
2019-03-15T04:49:33.316Z,6.80
2019-03-15T04:52:01.776Z,6.17
2019-03-15T04:54:30.301Z,5.97
2019-03-15T04:56:58.808Z,6.70
2019-03-15T04:59:27.270Z,5.90
2019-03-15T05:01:55.707Z,5.53
2019-03-15T05:04:24.403Z,5.73
2019-03-15T05:06:52.956Z,5.23
2019-03-15T05:09:21.403Z,5.03
2019-03-15T05:11:50.047Z,5.10
2019-03-15T05:14:19.006Z,4.83
2019-03-15T05:16:47.466Z,4.60
2019-03-15T05:19:16.052Z,4.40
2019-03-15T05:21:44.586Z,4.27
2019-03-15T05:24:13.039Z,4.50
2019-03-15T05:26:41.747Z,4.77
2019-03-15T05:29:10.204Z,5.23
2019-03-15T05:31:38.685Z,4.40
2019-03-15T05:34:07.168Z,5.27
2019-03-15T05:36:35.628Z,5.07
2019-03-15T05:39:05.423Z,4.93
2019-03-15T05:41:33.929Z,4.97
2019-03-15T05:44:02.379Z,5.53
2019-03-15T05:46:30.850Z,5.53
2019-03-15T05:48:59.499Z,5.20
2019-03-15T05:51:28.136Z,5.30
2019-03-15T05:54:15.960Z,4.67
2019-03-15T05:56:44.415Z,4.93
2019-03-15T05:59:12.866Z,4.63
2019-03-15T06:01:41.362Z,5.30
2019-03-15T06:04:09.811Z,5.23
2019-03-15T06:06:38.288Z,5.53
2019-03-15T06:09:06.952Z,5.77
2019-03-15T06:11:35.398Z,4.47
2019-03-15T06:14:04.027Z,3.80
2019-03-15T06:16:32.529Z,3.50
2019-03-15T06:19:00.996Z,3.30
2019-03-15T06:21:29.528Z,2.53
2019-03-15T06:23:58.036Z,3.00
